Wetterdaten: Woche 18.02.13 - 24.02.13 (KW8)
Datum Zeit Temp. A. Feuchte A. Luftdruck Regen Wind Richtung Taupunkt Windchill Windben
18.02.2013 00:00 -0,3 C 96 % 1024,8 hPa 0,0 l/m 0,0 km/h (0 Bft) N -0,8 C -0,3 C 0,0 km/h (0 Bft)
18.02.2013 01:00 -0,3 C 96 % 1024,5 hPa 0,0 l/m 0,0 km/h (0 Bft) N -0,9 C -0,3 C 0,0 km/h (0 Bft)
18.02.2013 02:00 -0,4 C 97 % 1024,1 hPa 0,0 l/m 0,0 km/h (0 Bft) N -0,8 C -0,4 C 0,0 km/h (0 Bft)
18.02.2013 03:00 -0,4 C 97 % 1023,7 hPa 0,0 l/m 0,0 km/h (0 Bft) N -0,8 C -0,4 C 0,0 km/h (0 Bft)
18.02.2013 04:00 -0,5 C 97 % 1023,5 hPa 0,0 l/m 0,0 km/h (0 Bft) N -0,9 C -0,5 C 0,0 km/h (0 Bft)
18.02.2013 05:00 -0,6 C 97 % 1023,4 hPa 0,0 l/m 0,0 km/h (0 Bft) N -1,0 C -0,6 C 0,0 km/h (0 Bft)
18.02.2013 06:00 -0,6 C 97 % 1023,3 hPa 0,0 l/m 0,0 km/h (0 Bft) N -1,0 C -0,6 C 0,0 km/h (0 Bft)
18.02.2013 07:00 -0,6 C 97 % 1023,3 hPa 0,0 l/m 0,0 km/h (0 Bft) N -1,0 C -0,6 C 0,0 km/h (0 Bft)
18.02.2013 08:00 -0,5 C 97 % 1023,4 hPa 0,0 l/m 0,0 km/h (0 Bft) N -0,9 C -0,5 C 0,0 km/h (0 Bft)
18.02.2013 09:00 -0,2 C 97 % 1023,4 hPa 0,0 l/m 0,0 km/h (0 Bft) N -0,6 C -0,2 C 0,0 km/h (0 Bft)
18.02.2013 10:00 0,3 C 97 % 1023,4 hPa 0,0 l/m 0,0 km/h (0 Bft) N -0,2 C 0,3 C 0,0 km/h (0 Bft)
18.02.2013 11:00 0,5 C 97 % 1023,4 hPa 0,0 l/m 0,0 km/h (0 Bft) N 0,1 C 0,5 C 0,0 km/h (0 Bft)
18.02.2013 12:00 1,0 C 96 % 1023,0 hPa 0,0 l/m 0,0 km/h (0 Bft) N 0,4 C 1,0 C 0,0 km/h (0 Bft)
18.02.2013 13:00 1,8 C 94 % 1022,5 hPa 0,0 l/m 0,0 km/h (0 Bft) N 1,0 C 1,8 C 0,0 km/h (0 Bft)
18.02.2013 14:00 2,7 C 90 % 1021,9 hPa 0,0 l/m 0,4 km/h (0 Bft) S-SW 1,1 C 2,7 C 1,3 km/h (1 Bft)
18.02.2013 15:00 3,1 C 80 % 1021,4 hPa 0,0 l/m 1,0 km/h (0 Bft) W-SW 0,0 C 3,1 C 4,3 km/h (1 Bft)
18.02.2013 16:00 2,9 C 79 % 1021,0 hPa 0,0 l/m 1,0 km/h (0 Bft) S-SW -0,3 C 2,9 C 4,5 km/h (1 Bft)
18.02.2013 17:00 2,6 C 81 % 1020,6 hPa 0,0 l/m 1,4 km/h (1 Bft) SW -0,3 C 2,6 C 2,2 km/h (1 Bft)
18.02.2013 18:00 2,3 C 81 % 1020,5 hPa 0,0 l/m 1,1 km/h (1 Bft) SW -0,6 C 2,3 C 1,7 km/h (1 Bft)
18.02.2013 19:00 1,6 C 82 % 1020,1 hPa 0,0 l/m 0,6 km/h (0 Bft) W -1,1 C 1,6 C 3,6 km/h (1 Bft)
18.02.2013 20:00 1,4 C 84 % 1019,4 hPa 0,0 l/m 1,0 km/h (0 Bft) S-SW -1,0 C 1,4 C 4,7 km/h (1 Bft)
18.02.2013 21:00 1,3 C 86 % 1019,0 hPa 0,0 l/m 1,0 km/h (0 Bft) SW -0,8 C 1,3 C 4,3 km/h (1 Bft)
18.02.2013 22:00 1,2 C 88 % 1018,7 hPa 0,0 l/m 0,3 km/h (0 Bft) W -0,6 C 1,2 C 2,7 km/h (1 Bft)
18.02.2013 23:00 1,3 C 91 % 1018,3 hPa 0,0 l/m 1,6 km/h (1 Bft) W-SW -0,1 C 1,3 C 6,7 km/h (2 Bft)
19.02.2013 00:00 1,2 C 91 % 1017,7 hPa 0,0 l/m 1,6 km/h (1 Bft) W -0,1 C 1,2 C 6,7 km/h (2 Bft)
19.02.2013 01:00 1,0 C 91 % 1016,9 hPa 0,0 l/m 2,1 km/h (1 Bft) W-SW -0,3 C 1,0 C 7,9 km/h (2 Bft)
19.02.2013 02:00 0,7 C 93 % 1016,2 hPa 0,0 l/m 2,3 km/h (1 Bft) W -0,3 C 0,7 C 8,6 km/h (2 Bft)
19.02.2013 03:00 0,3 C 95 % 1015,6 hPa 0,0 l/m 2,2 km/h (1 Bft) W -0,4 C 0,3 C 8,4 km/h (2 Bft)
19.02.2013 04:00 0,2 C 96 % 1014,9 hPa 0,0 l/m 1,6 km/h (1 Bft) W-SW -0,4 C 0,2 C 5,5 km/h (2 Bft)
19.02.2013 05:00 0,2 C 96 % 1014,1 hPa 0,0 l/m 2,4 km/h (1 Bft) W -0,4 C 0,2 C 7,1 km/h (2 Bft)
19.02.2013 06:00 0,2 C 96 % 1013,4 hPa 0,0 l/m 2,1 km/h (1 Bft) W -0,4 C 0,2 C 6,5 km/h (2 Bft)
19.02.2013 07:00 0,3 C 96 % 1013,1 hPa 0,0 l/m 2,5 km/h (1 Bft) W -0,3 C 0,3 C 7,2 km/h (2 Bft)
19.02.2013 08:00 0,4 C 96 % 1013,1 hPa 0,0 l/m 4,1 km/h (1 Bft) W -0,2 C 0,4 C 10,8 km/h (2 Bft)
19.02.2013 09:00 0,5 C 96 % 1013,2 hPa 0,0 l/m 5,0 km/h (1 Bft) W -0,0 C 0,5 C 11,2 km/h (2 Bft)
19.02.2013 10:00 0,8 C 96 % 1013,5 hPa 0,0 l/m 7,1 km/h (2 Bft) W-NW 0,2 C -0,1 C 14,0 km/h (3 Bft)
19.02.2013 11:00 1,0 C 95 % 1014,1 hPa 1,2 l/m 11,8 km/h (2 Bft) N-NO 0,3 C -3,7 C 17,3 km/h (3 Bft)
19.02.2013 12:00 1,3 C 94 % 1014,8 hPa 1,2 l/m 11,8 km/h (2 Bft) N-NO 0,4 C -3,3 C 17,8 km/h (3 Bft)
19.02.2013 13:00 1,3 C 92 % 1015,2 hPa 1,4 l/m 11,2 km/h (2 Bft) N-NO 0,2 C -2,8 C 16,6 km/h (3 Bft)
19.02.2013 14:00 1,1 C 93 % 1015,5 hPa 0,8 l/m 13,3 km/h (3 Bft) N 0,0 C -4,5 C 21,3 km/h (4 Bft)
19.02.2013 15:00 1,0 C 91 % 1016,0 hPa 0,2 l/m 12,4 km/h (2 Bft) N -0,3 C -4,0 C 18,3 km/h (3 Bft)
19.02.2013 16:00 0,6 C 90 % 1016,7 hPa 0,0 l/m 11,7 km/h (2 Bft) N-NW -0,8 C -4,0 C 17,0 km/h (3 Bft)
19.02.2013 17:00 0,4 C 91 % 1017,3 hPa 0,0 l/m 13,9 km/h (3 Bft) N -0,9 C -5,8 C 15,2 km/h (3 Bft)
19.02.2013 18:00 -0,2 C 91 % 1018,1 hPa 0,0 l/m 10,8 km/h (2 Bft) N -1,6 C -4,1 C 13,6 km/h (3 Bft)
19.02.2013 19:00 -0,5 C 91 % 1018,8 hPa 0,0 l/m 7,4 km/h (2 Bft) N-NW -1,8 C -1,7 C 11,6 km/h (2 Bft)
19.02.2013 20:00 -0,4 C 90 % 1019,4 hPa 0,0 l/m 9,5 km/h (2 Bft) N-NW -1,8 C -3,3 C 13,7 km/h (3 Bft)
19.02.2013 21:00 -0,5 C 89 % 1019,6 hPa 0,0 l/m 10,7 km/h (2 Bft) N-NW -2,0 C -4,6 C 15,7 km/h (3 Bft)
19.02.2013 22:00 -0,5 C 89 % 1020,3 hPa 0,0 l/m 10,7 km/h (2 Bft) N-NW -2,1 C -4,5 C 15,4 km/h (3 Bft)
19.02.2013 23:00 -0,6 C 89 % 1020,8 hPa 0,0 l/m 11,2 km/h (2 Bft) N-NW -2,2 C -5,1 C 16,6 km/h (3 Bft)
20.02.2013 00:00 -0,8 C 89 % 1021,2 hPa 0,0 l/m 10,4 km/h (2 Bft) N-NW -2,4 C -4,7 C 15,0 km/h (3 Bft)
20.02.2013 01:00 -1,0 C 89 % 1021,5 hPa 0,0 l/m 9,2 km/h (2 Bft) N-NW -2,6 C -3,9 C 13,6 km/h (3 Bft)
20.02.2013 02:00 -0,9 C 89 % 1021,9 hPa 0,0 l/m 10,0 km/h (2 Bft) N-NW -2,4 C -4,4 C 14,6 km/h (3 Bft)
20.02.2013 03:00 -1,0 C 90 % 1022,2 hPa 0,0 l/m 9,2 km/h (2 Bft) N-NW -2,4 C -3,8 C 13,3 km/h (3 Bft)
20.02.2013 04:00 -1,5 C 90 % 1022,4 hPa 0,0 l/m 6,9 km/h (2 Bft) N-NW -2,8 C -2,1 C 10,5 km/h (2 Bft)
20.02.2013 05:00 -1,4 C 91 % 1022,9 hPa 0,0 l/m 9,1 km/h (2 Bft) N-NW -2,7 C -4,1 C 13,3 km/h (3 Bft)
20.02.2013 06:00 -1,3 C 91 % 1023,1 hPa 0,0 l/m 10,0 km/h (2 Bft) N-NW -2,6 C -4,9 C 14,6 km/h (3 Bft)
20.02.2013 07:00 -1,3 C 91 % 1023,6 hPa 0,0 l/m 8,8 km/h (2 Bft) N-NW -2,6 C -3,8 C 12,8 km/h (3 Bft)
20.02.2013 08:00 -1,2 C 90 % 1024,0 hPa 0,0 l/m 11,2 km/h (2 Bft) N -2,6 C -5,7 C 16,4 km/h (3 Bft)
20.02.2013 09:00 -0,8 C 87 % 1024,4 hPa 0,0 l/m 13,5 km/h (3 Bft) N-NO -2,7 C -7,0 C 19,8 km/h (4 Bft)
20.02.2013 10:00 -0,5 C 85 % 1024,7 hPa 0,0 l/m 14,2 km/h (3 Bft) N-NW -2,7 C -7,1 C 20,1 km/h (4 Bft)
20.02.2013 11:00 -0,2 C 83 % 1024,9 hPa 0,0 l/m 15,0 km/h (3 Bft) N -2,7 C -7,2 C 22,4 km/h (4 Bft)
20.02.2013 12:00 -0,1 C 81 % 1025,0 hPa 0,0 l/m 14,5 km/h (3 Bft) N -2,9 C -6,7 C 21,6 km/h (4 Bft)
20.02.2013 13:00 -0,2 C 83 % 1024,9 hPa 0,0 l/m 14,3 km/h (3 Bft) N-NO -2,6 C -6,7 C 21,4 km/h (4 Bft)
20.02.2013 14:00 -0,2 C 80 % 1024,9 hPa 0,0 l/m 14,5 km/h (3 Bft) N-NO -3,2 C -6,8 C 21,0 km/h (4 Bft)
20.02.2013 15:00 -0,8 C 82 % 1025,0 hPa 0,0 l/m 15,9 km/h (3 Bft) N-NO -3,4 C -8,2 C 24,0 km/h (4 Bft)
20.02.2013 16:00 -1,2 C 87 % 1025,3 hPa 0,0 l/m 14,3 km/h (3 Bft) N -3,1 C -7,9 C 20,4 km/h (4 Bft)
20.02.2013 17:00 -1,4 C 89 % 1025,6 hPa 0,0 l/m 12,0 km/h (2 Bft) N -3,0 C -6,6 C 18,4 km/h (3 Bft)
20.02.2013 18:00 -1,5 C 88 % 1025,9 hPa 0,0 l/m 11,7 km/h (2 Bft) N-NO -3,1 C -6,4 C 17,2 km/h (3 Bft)
20.02.2013 19:00 -1,5 C 87 % 1026,0 hPa 0,0 l/m 11,5 km/h (2 Bft) N -3,4 C -6,3 C 16,5 km/h (3 Bft)
20.02.2013 20:00 -1,5 C 86 % 1025,8 hPa 0,0 l/m 13,7 km/h (3 Bft) N-NO -3,6 C -8,0 C 20,5 km/h (4 Bft)
20.02.2013 21:00 -1,8 C 88 % 1025,9 hPa 0,0 l/m 13,5 km/h (3 Bft) N-NO -3,6 C -8,1 C 20,1 km/h (4 Bft)
20.02.2013 22:00 -1,8 C 87 % 1026,2 hPa 0,0 l/m 11,7 km/h (2 Bft) N-NO -3,6 C -6,8 C 17,6 km/h (3 Bft)
20.02.2013 23:00 -1,8 C 87 % 1026,2 hPa 0,0 l/m 11,8 km/h (2 Bft) N-NO -3,7 C -6,9 C 17,7 km/h (3 Bft)
21.02.2013 00:00 -1,8 C 88 % 1026,1 hPa 0,0 l/m 11,3 km/h (2 Bft) N -3,6 C -6,5 C 17,6 km/h (3 Bft)
21.02.2013 01:00 -1,9 C 90 % 1026,0 hPa 0,0 l/m 10,0 km/h (2 Bft) N -3,3 C -5,5 C 14,4 km/h (3 Bft)
21.02.2013 02:00 -2,0 C 92 % 1025,8 hPa 0,0 l/m 10,0 km/h (2 Bft) N-NO -3,2 C -5,7 C 14,2 km/h (3 Bft)
21.02.2013 03:00 -2,2 C 92 % 1025,6 hPa 0,0 l/m 10,9 km/h (2 Bft) N -3,3 C -6,6 C 16,5 km/h (3 Bft)
21.02.2013 04:00 -2,1 C 92 % 1025,3 hPa 0,0 l/m 8,7 km/h (2 Bft) N -3,3 C -4,6 C 12,5 km/h (2 Bft)
21.02.2013 05:00 -2,1 C 91 % 1025,2 hPa 0,0 l/m 10,4 km/h (2 Bft) N-NO -3,4 C -6,0 C 15,4 km/h (3 Bft)
21.02.2013 06:00 -2,1 C 90 % 1025,1 hPa 0,0 l/m 10,7 km/h (2 Bft) N-NO -3,5 C -6,3 C 16,2 km/h (3 Bft)
21.02.2013 07:00 -2,1 C 91 % 1025,2 hPa 0,0 l/m 8,9 km/h (2 Bft) N-NO -3,4 C -4,8 C 14,1 km/h (3 Bft)
21.02.2013 08:00 -2,2 C 92 % 1025,3 hPa 0,0 l/m 10,0 km/h (2 Bft) N-NO -3,3 C -5,8 C 15,0 km/h (3 Bft)
21.02.2013 09:00 -2,0 C 93 % 1025,3 hPa 0,0 l/m 9,9 km/h (2 Bft) N-NO -3,0 C -5,6 C 14,2 km/h (3 Bft)
21.02.2013 10:00 -1,7 C 91 % 1025,4 hPa 0,0 l/m 11,1 km/h (2 Bft) NO -3,0 C -6,2 C 17,2 km/h (3 Bft)
21.02.2013 11:00 -1,6 C 90 % 1025,4 hPa 0,0 l/m 11,3 km/h (2 Bft) N-NO -3,0 C -6,3 C 16,9 km/h (3 Bft)
21.02.2013 12:00 -1,6 C 90 % 1025,1 hPa 0,0 l/m 12,1 km/h (2 Bft) N-NO -2,9 C -6,8 C 18,4 km/h (3 Bft)
21.02.2013 13:00 -1,2 C 87 % 1024,5 hPa 0,0 l/m 14,4 km/h (3 Bft) N-NO -3,0 C -8,0 C 20,8 km/h (4 Bft)
21.02.2013 14:00 -0,9 C 84 % 1024,0 hPa 0,0 l/m 13,9 km/h (3 Bft) NO -3,3 C -7,3 C 19,7 km/h (3 Bft)
21.02.2013 15:00 -0,9 C 84 % 1023,8 hPa 0,0 l/m 12,7 km/h (3 Bft) N-NO -3,3 C -6,5 C 18,6 km/h (3 Bft)
21.02.2013 16:00 -1,0 C 84 % 1023,6 hPa 0,0 l/m 13,1 km/h (3 Bft) NO -3,4 C -6,8 C 19,4 km/h (3 Bft)
21.02.2013 17:00 -1,7 C 88 % 1023,6 hPa 0,0 l/m 9,9 km/h (2 Bft) N-NO -3,4 C -5,1 C 14,8 km/h (3 Bft)
21.02.2013 18:00 -2,4 C 88 % 1023,7 hPa 0,0 l/m 6,8 km/h (2 Bft) N-NO -4,1 C -3,1 C 9,9 km/h (2 Bft)
21.02.2013 19:00 -2,3 C 89 % 1023,8 hPa 0,0 l/m 8,8 km/h (2 Bft) N-NO -3,8 C -4,9 C 12,4 km/h (2 Bft)
21.02.2013 20:00 -2,2 C 89 % 1023,7 hPa 0,0 l/m 7,8 km/h (2 Bft) N-NO -3,8 C -3,7 C 11,6 km/h (2 Bft)
21.02.2013 21:00 -2,0 C 87 % 1023,7 hPa 0,0 l/m 10,4 km/h (2 Bft) NO -3,9 C -5,9 C 15,7 km/h (3 Bft)
21.02.2013 22:00 -2,3 C 88 % 1023,5 hPa 0,0 l/m 8,5 km/h (2 Bft) N-NO -4,0 C -4,6 C 13,3 km/h (3 Bft)
21.02.2013 23:00 -3,0 C 90 % 1023,3 hPa 0,0 l/m 8,1 km/h (2 Bft) N-NO -4,4 C -4,9 C 11,6 km/h (2 Bft)
22.02.2013 00:00 -4,2 C 92 % 1023,2 hPa 0,0 l/m 4,3 km/h (1 Bft) NO -5,4 C -4,3 C 6,3 km/h (2 Bft)
22.02.2013 01:00 -4,5 C 94 % 1023,0 hPa 0,0 l/m 2,9 km/h (1 Bft) N-NO -5,3 C -4,5 C 4,9 km/h (1 Bft)
22.02.2013 02:00 -3,6 C 94 % 1022,6 hPa 0,0 l/m 4,9 km/h (1 Bft) N-NO -4,4 C -3,5 C 7,2 km/h (2 Bft)
22.02.2013 03:00 -3,7 C 94 % 1022,0 hPa 0,0 l/m 5,5 km/h (2 Bft) N-NO -4,6 C -3,7 C 8,3 km/h (2 Bft)
22.02.2013 04:00 -3,8 C 94 % 1021,6 hPa 0,0 l/m 5,6 km/h (2 Bft) N-NO -4,6 C -3,8 C 8,0 km/h (2 Bft)
22.02.2013 05:00 -3,9 C 93 % 1021,5 hPa 0,0 l/m 6,1 km/h (2 Bft) N-NO -4,9 C -4,2 C 8,9 km/h (2 Bft)
22.02.2013 06:00 -4,6 C 93 % 1021,5 hPa 0,0 l/m 5,9 km/h (2 Bft) N-NO -5,5 C -5,4 C 9,5 km/h (2 Bft)
22.02.2013 07:00 -3,9 C 91 % 1021,5 hPa 0,0 l/m 9,2 km/h (2 Bft) NO -5,3 C -7,0 C 14,1 km/h (3 Bft)
22.02.2013 08:00 -3,6 C 89 % 1021,6 hPa 0,0 l/m 8,9 km/h (2 Bft) NO -5,2 C -6,4 C 14,6 km/h (3 Bft)
22.02.2013 09:00 -3,4 C 87 % 1021,7 hPa 0,0 l/m 9,7 km/h (2 Bft) NO -5,3 C -6,9 C 17,2 km/h (3 Bft)
22.02.2013 10:00 -3,1 C 86 % 1021,6 hPa 0,0 l/m 10,9 km/h (2 Bft) NO -5,2 C -7,6 C 18,0 km/h (3 Bft)
22.02.2013 11:00 -2,9 C 82 % 1021,2 hPa 0,0 l/m 13,0 km/h (3 Bft) NO -5,5 C -9,0 C 20,9 km/h (4 Bft)
22.02.2013 12:00 -2,8 C 82 % 1020,8 hPa 0,0 l/m 12,9 km/h (3 Bft) NO -5,5 C -8,8 C 20,8 km/h (4 Bft)
22.02.2013 13:00 -2,3 C 77 % 1020,3 hPa 0,0 l/m 12,2 km/h (2 Bft) O-NO -5,7 C -7,8 C 20,2 km/h (4 Bft)
22.02.2013 14:00 -2,6 C 82 % 1019,9 hPa 0,0 l/m 11,4 km/h (2 Bft) NO -5,2 C -7,4 C 18,6 km/h (3 Bft)
22.02.2013 15:00 -2,7 C 85 % 1019,7 hPa 0,0 l/m 12,2 km/h (2 Bft) NO -4,9 C -8,1 C 19,7 km/h (3 Bft)
22.02.2013 16:00 -2,8 C 84 % 1019,6 hPa 0,0 l/m 9,5 km/h (2 Bft) NO -5,1 C -6,0 C 15,3 km/h (3 Bft)
22.02.2013 17:00 -2,9 C 83 % 1019,5 hPa 0,0 l/m 8,6 km/h (2 Bft) NO -5,4 C -5,3 C 13,5 km/h (3 Bft)
22.02.2013 18:00 -3,3 C 81 % 1019,8 hPa 0,0 l/m 5,8 km/h (2 Bft) NO -6,1 C -3,6 C 10,2 km/h (2 Bft)
22.02.2013 19:00 -4,3 C 83 % 1020,0 hPa 0,0 l/m 4,0 km/h (1 Bft) NO -6,7 C -4,3 C 6,3 km/h (2 Bft)
22.02.2013 20:00 -4,6 C 87 % 1020,1 hPa 0,0 l/m 6,0 km/h (2 Bft) NO -6,5 C -5,0 C 8,8 km/h (2 Bft)
22.02.2013 21:00 -4,1 C 85 % 1020,1 hPa 0,0 l/m 8,1 km/h (2 Bft) NO -6,2 C -6,0 C 13,3 km/h (3 Bft)
22.02.2013 22:00 -4,4 C 84 % 1020,0 hPa 0,0 l/m 7,5 km/h (2 Bft) NO -6,7 C -5,8 C 11,7 km/h (2 Bft)
22.02.2013 23:00 -4,7 C 86 % 1019,7 hPa 0,0 l/m 8,0 km/h (2 Bft) NO -6,8 C -6,6 C 12,0 km/h (2 Bft)
23.02.2013 00:00 -5,1 C 87 % 1019,5 hPa 0,0 l/m 8,4 km/h (2 Bft) N-NO -7,0 C -7,4 C 11,7 km/h (2 Bft)
23.02.2013 01:00 -5,3 C 88 % 1019,1 hPa 0,0 l/m 10,0 km/h (2 Bft) NO -7,0 C -9,3 C 14,8 km/h (3 Bft)
23.02.2013 02:00 -5,3 C 89 % 1018,5 hPa 0,0 l/m 10,1 km/h (2 Bft) NO -6,8 C -9,3 C 15,2 km/h (3 Bft)
23.02.2013 03:00 -4,4 C 85 % 1018,0 hPa 0,0 l/m 12,8 km/h (3 Bft) NO -6,5 C -10,6 C 20,8 km/h (4 Bft)
23.02.2013 04:00 -4,1 C 84 % 1017,8 hPa 0,0 l/m 16,6 km/h (3 Bft) O-NO -6,4 C -13,0 C 26,0 km/h (4 Bft)
23.02.2013 05:00 -4,1 C 84 % 1017,8 hPa 0,0 l/m 15,4 km/h (3 Bft) NO -6,4 C -12,2 C 25,9 km/h (4 Bft)
23.02.2013 06:00 -4,1 C 84 % 1017,9 hPa 0,0 l/m 9,7 km/h (2 Bft) O-NO -6,4 C -7,6 C 17,4 km/h (3 Bft)
23.02.2013 07:00 -4,3 C 85 % 1018,1 hPa 0,0 l/m 11,7 km/h (2 Bft) O-NO -6,4 C -9,6 C 20,0 km/h (4 Bft)
23.02.2013 08:00 -4,2 C 86 % 1018,1 hPa 0,0 l/m 14,4 km/h (3 Bft) NO -6,2 C -11,6 C 23,0 km/h (4 Bft)
23.02.2013 09:00 -3,7 C 87 % 1017,7 hPa 0,0 l/m 16,4 km/h (3 Bft) NO -5,6 C -12,4 C 24,4 km/h (4 Bft)
23.02.2013 10:00 -3,2 C 86 % 1017,6 hPa 0,0 l/m 18,7 km/h (3 Bft) NO -5,2 C -13,0 C 28,3 km/h (5 Bft)
23.02.2013 11:00 -2,9 C 86 % 1017,4 hPa 0,0 l/m 19,8 km/h (4 Bft) N-NO -4,9 C -13,3 C 28,2 km/h (5 Bft)
23.02.2013 12:00 -2,6 C 87 % 1017,2 hPa 0,0 l/m 19,6 km/h (3 Bft) NO -4,5 C -12,7 C 27,8 km/h (5 Bft)
23.02.2013 13:00 -2,4 C 87 % 1016,9 hPa 0,0 l/m 16,7 km/h (3 Bft) N-NO -4,3 C -10,9 C 24,6 km/h (4 Bft)
23.02.2013 14:00 -2,0 C 90 % 1016,6 hPa 0,0 l/m 16,7 km/h (3 Bft) N-NO -3,4 C -10,4 C 22,9 km/h (4 Bft)
23.02.2013 15:00 -1,8 C 93 % 1016,3 hPa 0,0 l/m 16,7 km/h (3 Bft) N-NO -2,8 C -10,2 C 23,0 km/h (4 Bft)
23.02.2013 16:00 -1,3 C 93 % 1016,0 hPa 0,0 l/m 17,8 km/h (3 Bft) N-NO -2,3 C -10,2 C 24,6 km/h (4 Bft)
23.02.2013 17:00 -1,1 C 93 % 1015,7 hPa 0,0 l/m 18,2 km/h (3 Bft) N-NO -2,0 C -10,1 C 25,9 km/h (4 Bft)
23.02.2013 18:00 -0,8 C 94 % 1015,6 hPa 0,0 l/m 18,1 km/h (3 Bft) N-NO -1,7 C -9,6 C 26,0 km/h (4 Bft)
23.02.2013 19:00 -0,4 C 93 % 1015,6 hPa 0,0 l/m 17,1 km/h (3 Bft) NO -1,4 C -8,7 C 25,3 km/h (4 Bft)
23.02.2013 20:00 -0,3 C 93 % 1016,0 hPa 0,0 l/m 12,7 km/h (3 Bft) NO -1,3 C -5,8 C 20,6 km/h (4 Bft)
23.02.2013 21:00 -0,4 C 92 % 1015,9 hPa 0,0 l/m 14,1 km/h (3 Bft) NO -1,6 C -6,9 C 21,0 km/h (4 Bft)
23.02.2013 22:00 -0,5 C 90 % 1016,1 hPa 0,0 l/m 16,1 km/h (3 Bft) NO -2,0 C -8,2 C 23,6 km/h (4 Bft)
23.02.2013 23:00 -1,0 C 92 % 1016,0 hPa 0,0 l/m 16,3 km/h (3 Bft) NO -2,1 C -8,9 C 22,8 km/h (4 Bft)
24.02.2013 00:00 -1,1 C 93 % 1015,9 hPa 0,0 l/m 15,9 km/h (3 Bft) N-NO -2,1 C -8,9 C 22,5 km/h (4 Bft)
24.02.2013 01:00 -1,2 C 94 % 1015,7 hPa 0,0 l/m 15,7 km/h (3 Bft) N-NO -2,0 C -8,8 C 22,2 km/h (4 Bft)
24.02.2013 02:00 -1,0 C 93 % 1015,2 hPa 0,0 l/m 15,1 km/h (3 Bft) N-NO -2,0 C -8,2 C 21,8 km/h (4 Bft)
24.02.2013 03:00 -0,8 C 92 % 1015,4 hPa 0,0 l/m 13,0 km/h (3 Bft) NO -1,9 C -6,6 C 18,2 km/h (3 Bft)
24.02.2013 04:00 -0,7 C 92 % 1015,3 hPa 0,0 l/m 11,7 km/h (2 Bft) NO -1,7 C -5,5 C 16,5 km/h (3 Bft)
24.02.2013 05:00 -0,6 C 93 % 1015,1 hPa 0,0 l/m 11,9 km/h (2 Bft) N-NO -1,6 C -5,6 C 17,3 km/h (3 Bft)
24.02.2013 06:00 -0,4 C 94 % 1014,7 hPa 0,0 l/m 11,7 km/h (2 Bft) NO -1,3 C -5,2 C 16,8 km/h (3 Bft)
24.02.2013 07:00 -0,3 C 94 % 1014,8 hPa 0,0 l/m 12,3 km/h (2 Bft) NO -1,1 C -5,5 C 18,1 km/h (3 Bft)
24.02.2013 08:00 -0,1 C 94 % 1015,1 hPa 0,0 l/m 10,5 km/h (2 Bft) NO -1,0 C -4,0 C 15,6 km/h (3 Bft)
24.02.2013 09:00 0,0 C 95 % 1015,2 hPa 0,0 l/m 12,2 km/h (2 Bft) NO -0,7 C -5,0 C 17,4 km/h (3 Bft)
24.02.2013 10:00 0,2 C 95 % 1015,6 hPa 0,0 l/m 12,1 km/h (2 Bft) N-NO -0,5 C -4,7 C 17,4 km/h (3 Bft)
24.02.2013 11:00 0,5 C 95 % 1015,7 hPa 0,0 l/m 13,5 km/h (3 Bft) N-NO -0,3 C -5,4 C 19,7 km/h (3 Bft)
24.02.2013 12:00 0,6 C 94 % 1015,7 hPa 0,4 l/m 12,3 km/h (2 Bft) NO -0,2 C -4,4 C 17,8 km/h (3 Bft)
24.02.2013 13:00 0,7 C 95 % 1015,6 hPa 0,2 l/m 10,8 km/h (2 Bft) N-NO 0,0 C -3,3 C 15,7 km/h (3 Bft)
24.02.2013 14:00 0,8 C 95 % 1015,4 hPa 0,0 l/m 12,9 km/h (3 Bft) N-NO 0,1 C -4,7 C 18,9 km/h (3 Bft)
24.02.2013 15:00 0,7 C 95 % 1016,0 hPa 0,2 l/m 10,2 km/h (2 Bft) NO 0,0 C -2,8 C 15,7 km/h (3 Bft)
24.02.2013 16:00 0,5 C 96 % 1016,0 hPa 0,0 l/m 10,7 km/h (2 Bft) N-NO -0,1 C -3,4 C 16,1 km/h (3 Bft)
24.02.2013 17:00 0,6 C 96 % 1016,4 hPa 0,0 l/m 9,7 km/h (2 Bft) N-NO 0,0 C -2,5 C 14,6 km/h (3 Bft)
24.02.2013 18:00 0,6 C 96 % 1017,1 hPa 0,0 l/m 8,6 km/h (2 Bft) NO 0,0 C -1,6 C 12,6 km/h (3 Bft)
24.02.2013 19:00 0,5 C 96 % 1017,4 hPa 0,0 l/m 8,6 km/h (2 Bft) NO -0,1 C -1,6 C 13,3 km/h (3 Bft)
24.02.2013 20:00 0,6 C 96 % 1017,6 hPa 0,0 l/m 7,4 km/h (2 Bft) NO 0,0 C -0,4 C 11,8 km/h (2 Bft)
24.02.2013 21:00 0,6 C 97 % 1018,2 hPa 0,0 l/m 6,9 km/h (2 Bft) NO 0,1 C -0,1 C 11,6 km/h (2 Bft)
24.02.2013 22:00 0,5 C 97 % 1019,0 hPa 0,0 l/m 6,0 km/h (2 Bft) NO 0,1 C 0,5 C 9,4 km/h (2 Bft)
24.02.2013 23:00 0,5 C 97 % 1019,4 hPa 0,0 l/m 6,5 km/h (2 Bft) N-NO 0,1 C 0,2 C 9,7 km/h (2 Bft)
Min-Datum _ 23.02.13 22.02.13 19.02.13 - 18.02.13 - 23.02.13 23.02.13 18.02.13
_ Min-Zeit 01:55 13:05 08:20 - 00:00 - 00:00 10:40 00:00
Minimum _ -5,4 C 75 % 1013,0 hPa - 0,0 km/h (0 Bft) - -7,1 C -14,7 C 0,0 km/h (0 Bft)
Max-Datum _ 18.02.13 18.02.13 20.02.13 19.02.13 20.02.13 - 18.02.13 18.02.13 20.02.13
_ Max-Zeit 15:00 01:50 22:35 13:00 15:10 - 14:25 15:00 15:15
Maximum _ 3,1 C 97 % 1026,4 hPa 1,4 l/m 25,2 km/h
N-NO (4 Bft)
- 1,4 C 3,1 C 35,4 km/h
N-NO (5 Bft)
Durchschnitt _ -1,1 C 90 % 1020,2 hPa #5,6 l/m 9,2 km/h (2 Bft) NO -2,6 C -4,7 C 14,1 km/h (3 Bft)